createdAt,value
2019-01-10T00:00:15.265Z,1009.32
2019-01-10T00:01:15.679Z,1009.38
2019-01-10T00:02:15.744Z,1009.41
2019-01-10T00:03:15.835Z,1009.31
2019-01-10T00:04:15.896Z,1009.33
2019-01-10T00:05:15.931Z,1009.33
2019-01-10T00:06:15.971Z,1009.43
2019-01-10T00:07:15.938Z,1009.43
2019-01-10T00:08:16.308Z,1009.44
2019-01-10T00:09:16.812Z,1009.45
2019-01-10T00:10:17.040Z,1009.48
2019-01-10T00:11:16.788Z,1009.49
2019-01-10T00:12:17.019Z,1009.58
2019-01-10T00:13:17.448Z,1009.49
2019-01-10T00:14:17.745Z,1009.48
2019-01-10T00:15:18.283Z,1009.48
2019-01-10T00:16:18.141Z,1009.48
2019-01-10T00:17:18.363Z,1009.54
2019-01-10T00:18:18.617Z,1009.59
2019-01-10T00:19:18.986Z,1009.55
2019-01-10T00:20:19.257Z,1009.62
2019-01-10T00:21:19.440Z,1009.64
2019-01-10T00:22:19.782Z,1009.50
2019-01-10T00:23:20.023Z,1009.61
2019-01-10T00:24:20.281Z,1009.57
2019-01-10T00:25:20.664Z,1009.58
2019-01-10T00:26:20.903Z,1009.56
2019-01-10T00:27:21.260Z,1009.67
2019-01-10T00:28:21.691Z,1009.61
2019-01-10T00:29:21.683Z,1009.63
2019-01-10T00:30:22.126Z,1009.66
2019-01-10T00:31:22.516Z,1009.61
2019-01-10T00:32:22.838Z,1009.73
2019-01-10T00:33:23.204Z,1009.68
2019-01-10T00:34:23.438Z,1009.66
2019-01-10T00:35:23.858Z,1009.74
2019-01-10T00:36:24.158Z,1009.66
2019-01-10T00:37:24.511Z,1009.77
2019-01-10T00:38:24.733Z,1009.70
2019-01-10T00:39:24.978Z,1009.69
2019-01-10T00:40:25.524Z,1009.72
2019-01-10T00:41:25.639Z,1009.78
2019-01-10T00:42:25.760Z,1009.81
2019-01-10T00:43:25.778Z,1009.82
2019-01-10T00:44:25.844Z,1009.85
2019-01-10T00:45:26.001Z,1009.82
2019-01-10T00:46:26.079Z,1009.90
2019-01-10T00:47:26.179Z,1009.84
2019-01-10T00:48:26.313Z,1009.89
2019-01-10T00:49:26.377Z,1009.92
2019-01-10T00:50:26.534Z,1009.87
2019-01-10T00:51:26.641Z,1009.84
2019-01-10T00:52:26.748Z,1009.82
2019-01-10T00:53:26.941Z,1009.83
2019-01-10T00:54:27.134Z,1009.84
2019-01-10T00:56:27.309Z,1009.88
2019-01-10T00:57:27.420Z,1009.98
2019-01-10T00:59:27.521Z,1009.92
2019-01-10T01:00:27.622Z,1009.94
2019-01-10T01:01:27.709Z,1009.97
2019-01-10T01:02:27.861Z,1010.01
2019-01-10T01:03:27.956Z,1010.02
2019-01-10T01:04:27.995Z,1010.06
2019-01-10T01:05:28.021Z,1009.99
2019-01-10T01:06:28.103Z,1010.03
2019-01-10T01:07:28.186Z,1009.96
2019-01-10T01:08:28.216Z,1010.10
2019-01-10T01:09:28.308Z,1010.02
2019-01-10T01:10:28.328Z,1010.13
2019-01-10T01:11:28.378Z,1010.14
2019-01-10T01:12:28.416Z,1010.08
2019-01-10T01:13:28.401Z,1010.03
2019-01-10T01:14:28.994Z,1010.14
2019-01-10T01:15:29.083Z,1010.14
2019-01-10T01:16:29.126Z,1010.01
2019-01-10T01:17:29.188Z,1010.13
2019-01-10T01:18:29.226Z,1010.13
2019-01-10T01:19:29.349Z,1010.20
2019-01-10T01:20:29.428Z,1010.20
2019-01-10T01:21:29.470Z,1010.16
2019-01-10T01:22:29.509Z,1010.25
2019-01-10T01:23:29.543Z,1010.28
2019-01-10T01:24:29.587Z,1010.24
2019-01-10T01:25:29.590Z,1010.25
2019-01-10T01:26:29.627Z,1010.23
2019-01-10T01:27:29.663Z,1010.29
2019-01-10T01:28:29.681Z,1010.19
2019-01-10T01:29:29.733Z,1010.22
2019-01-10T01:30:29.808Z,1010.28
2019-01-10T01:31:29.850Z,1010.27
2019-01-10T01:32:29.899Z,1010.30
2019-01-10T01:33:29.920Z,1010.30
2019-01-10T01:34:30.088Z,1010.30
2019-01-10T01:35:30.150Z,1010.25
2019-01-10T01:36:30.195Z,1010.29
2019-01-10T01:37:30.288Z,1010.32
2019-01-10T01:38:30.344Z,1010.31
2019-01-10T01:39:30.421Z,1010.32
2019-01-10T01:40:30.464Z,1010.39
2019-01-10T01:41:30.494Z,1010.38
2019-01-10T01:42:30.571Z,1010.42
2019-01-10T01:43:30.603Z,1010.41
2019-01-10T01:44:30.635Z,1010.46
2019-01-10T01:45:30.728Z,1010.45
2019-01-10T01:46:30.769Z,1010.43
2019-01-10T01:47:30.817Z,1010.41
2019-01-10T01:48:30.846Z,1010.45
2019-01-10T01:49:30.907Z,1010.44
2019-01-10T01:50:30.949Z,1010.42
2019-01-10T01:52:30.963Z,1010.54
2019-01-10T01:53:31.289Z,1010.47
2019-01-10T01:54:31.714Z,1010.51
2019-01-10T01:55:32.040Z,1010.48
2019-01-10T01:56:32.380Z,1010.45
2019-01-10T01:57:32.897Z,1010.44
2019-01-10T01:58:32.895Z,1010.50
2019-01-10T01:59:33.118Z,1010.56
2019-01-10T02:00:33.373Z,1010.53
2019-01-10T02:01:33.629Z,1010.52
2019-01-10T02:02:33.937Z,1010.54
2019-01-10T02:03:34.300Z,1010.56
2019-01-10T02:04:34.762Z,1010.55
2019-01-10T02:05:35.083Z,1010.58
2019-01-10T02:06:35.398Z,1010.58
2019-01-10T02:07:35.648Z,1010.59
2019-01-10T02:08:35.891Z,1010.56
2019-01-10T02:09:36.366Z,1010.57
2019-01-10T02:10:36.859Z,1010.61
2019-01-10T02:11:36.712Z,1010.67
2019-01-10T02:12:36.976Z,1010.67
2019-01-10T02:13:37.456Z,1010.73
2019-01-10T02:14:37.707Z,1010.68
2019-01-10T02:15:37.970Z,1010.73
2019-01-10T02:16:38.204Z,1010.74
2019-01-10T02:17:38.465Z,1010.75
2019-01-10T02:19:38.722Z,1010.83
2019-01-10T02:20:39.099Z,1010.75
2019-01-10T02:21:39.357Z,1010.69
2019-01-10T02:22:39.596Z,1010.78
2019-01-10T02:23:39.848Z,1010.77
2019-01-10T02:24:40.332Z,1010.88
2019-01-10T02:25:40.880Z,1010.85
2019-01-10T02:26:40.968Z,1010.86
2019-01-10T02:27:41.091Z,1010.86
2019-01-10T02:28:41.137Z,1010.89
2019-01-10T02:29:41.220Z,1010.88
2019-01-10T02:30:42.159Z,1010.91
2019-01-10T02:31:41.408Z,1010.87
2019-01-10T02:33:41.530Z,1010.91
2019-01-10T02:34:41.681Z,1010.94
2019-01-10T02:35:41.780Z,1010.97
2019-01-10T02:36:41.862Z,1010.94
2019-01-10T02:37:41.971Z,1010.92
2019-01-10T02:38:42.081Z,1010.93
2019-01-10T02:39:42.296Z,1010.94
2019-01-10T02:40:42.384Z,1010.90
2019-01-10T02:41:42.517Z,1011.01
2019-01-10T02:42:42.591Z,1010.96
2019-01-10T02:44:42.723Z,1010.98
2019-01-10T02:45:42.811Z,1011.02
2019-01-10T02:46:42.933Z,1010.98
2019-01-10T02:47:42.980Z,1011.00
2019-01-10T02:48:43.022Z,1011.00
2019-01-10T02:50:43.114Z,1011.06
2019-01-10T02:51:43.173Z,1010.98
2019-01-10T02:52:43.200Z,1011.06
2019-01-10T02:53:43.231Z,1010.93
2019-01-10T02:54:43.285Z,1010.95
2019-01-10T02:55:43.314Z,1011.02
2019-01-10T02:56:43.341Z,1011.02
2019-01-10T02:57:43.386Z,1011.02
2019-01-10T02:58:43.446Z,1011.04
2019-01-10T02:59:43.478Z,1011.06
2019-01-10T03:00:43.524Z,1011.12
2019-01-10T03:01:43.529Z,1011.10
2019-01-10T03:02:43.556Z,1011.13
2019-01-10T03:03:43.655Z,1011.04
2019-01-10T03:04:43.757Z,1011.17
2019-01-10T03:05:43.862Z,1011.03
2019-01-10T03:06:43.928Z,1011.17
2019-01-10T03:07:43.941Z,1011.17
2019-01-10T03:08:44.000Z,1011.24
2019-01-10T03:09:44.107Z,1011.27
2019-01-10T03:10:44.192Z,1011.09
2019-01-10T03:11:44.270Z,1011.17
2019-01-10T03:12:44.347Z,1011.15
2019-01-10T03:13:44.420Z,1011.16
2019-01-10T03:14:44.452Z,1011.16
2019-01-10T03:15:44.507Z,1011.14
2019-01-10T03:16:44.243Z,1011.07
2019-01-10T03:17:44.817Z,1011.10
2019-01-10T03:18:44.842Z,1011.12
2019-01-10T03:19:44.916Z,1011.05
2019-01-10T03:20:44.960Z,1011.10
2019-01-10T03:21:44.986Z,1011.02
2019-01-10T03:22:45.044Z,1011.13
2019-01-10T03:23:45.094Z,1011.12
2019-01-10T03:24:45.144Z,1011.03
2019-01-10T03:25:45.178Z,1010.99
2019-01-10T03:26:45.211Z,1011.08
2019-01-10T03:27:45.236Z,1010.98
2019-01-10T03:28:45.264Z,1011.03
2019-01-10T03:29:45.307Z,1011.04
2019-01-10T03:30:45.375Z,1010.98
2019-01-10T03:31:45.425Z,1011.07
2019-01-10T03:32:45.431Z,1010.97
2019-01-10T03:33:45.476Z,1011.00
2019-01-10T03:34:45.505Z,1011.02
2019-01-10T03:35:45.558Z,1011.02
2019-01-10T03:36:45.575Z,1011.04
2019-01-10T03:37:45.604Z,1011.00
2019-01-10T03:38:45.658Z,1011.01
2019-01-10T03:39:45.714Z,1011.08
2019-01-10T03:40:45.764Z,1011.02
2019-01-10T03:41:47.122Z,1011.04
2019-01-10T03:42:45.827Z,1010.95
2019-01-10T03:43:47.373Z,1011.01
2019-01-10T03:45:45.871Z,1010.96
2019-01-10T03:46:46.217Z,1011.01
2019-01-10T03:47:46.459Z,1010.98
2019-01-10T03:48:46.876Z,1011.00
2019-01-10T03:49:47.135Z,1011.03
2019-01-10T03:50:47.371Z,1010.97
2019-01-10T03:51:47.896Z,1010.95
2019-01-10T03:52:47.598Z,1010.96
2019-01-10T03:53:47.843Z,1010.95
2019-01-10T03:54:48.073Z,1011.00
2019-01-10T03:55:48.336Z,1011.13
2019-01-10T03:56:48.800Z,1011.05
2019-01-10T03:57:49.020Z,1011.04
2019-01-10T03:58:49.301Z,1011.08
2019-01-10T03:59:49.548Z,1011.04
2019-01-10T04:00:49.875Z,1011.00
2019-01-10T04:01:50.103Z,1011.06
2019-01-10T04:02:50.330Z,1011.04
2019-01-10T04:03:50.562Z,1011.08
2019-01-10T04:04:50.776Z,1011.06
2019-01-10T04:05:51.078Z,1011.04
2019-01-10T04:06:51.291Z,1010.96
2019-01-10T04:07:51.526Z,1010.95
2019-01-10T04:08:51.764Z,1010.85
2019-01-10T04:09:52.005Z,1010.99
2019-01-10T04:10:52.261Z,1011.01
2019-01-10T04:11:52.614Z,1010.97
2019-01-10T04:12:52.825Z,1011.01
2019-01-10T04:13:57.564Z,1010.98
2019-01-10T04:14:53.334Z,1010.98
2019-01-10T04:16:53.847Z,1010.99
2019-01-10T04:17:54.293Z,1010.99
2019-01-10T04:18:54.668Z,1011.00
2019-01-10T04:19:55.159Z,1011.07
2019-01-10T04:20:55.612Z,1010.94
2019-01-10T04:21:55.673Z,1010.93
2019-01-10T04:22:55.743Z,1011.08
2019-01-10T04:23:55.803Z,1011.05
2019-01-10T04:24:55.816Z,1011.04
2019-01-10T04:25:55.845Z,1011.06
2019-01-10T04:26:55.889Z,1011.08
2019-01-10T04:27:55.989Z,1011.04
2019-01-10T04:28:56.064Z,1011.12
2019-01-10T04:29:56.136Z,1011.15
2019-01-10T04:30:56.240Z,1011.18
2019-01-10T04:31:56.373Z,1011.10
2019-01-10T04:32:56.487Z,1011.11
2019-01-10T04:33:56.603Z,1011.13
2019-01-10T04:34:56.694Z,1011.16
2019-01-10T04:35:56.785Z,1011.11
2019-01-10T04:36:56.907Z,1011.16
2019-01-10T04:37:57.004Z,1011.28
2019-01-10T04:38:57.081Z,1011.23
2019-01-10T04:39:57.170Z,1011.23
2019-01-10T04:40:57.316Z,1011.28
2019-01-10T04:41:57.428Z,1011.27
2019-01-10T04:42:57.512Z,1011.30
2019-01-10T04:44:06.649Z,1011.32
2019-01-10T04:44:57.717Z,1011.19
2019-01-10T04:45:57.822Z,1011.39
2019-01-10T04:46:57.869Z,1011.34
2019-01-10T04:47:57.932Z,1011.33
2019-01-10T04:48:57.946Z,1011.35
2019-01-10T04:49:58.043Z,1011.38
2019-01-10T04:50:58.458Z,1011.40
2019-01-10T04:51:58.509Z,1011.41
2019-01-10T04:52:58.522Z,1011.37
2019-01-10T04:53:58.570Z,1011.46
2019-01-10T04:54:58.634Z,1011.42
2019-01-10T04:56:58.691Z,1011.42
2019-01-10T04:57:58.756Z,1011.50
2019-01-10T04:58:58.784Z,1011.46
2019-01-10T04:59:58.883Z,1011.40
2019-01-10T05:00:58.976Z,1011.42
2019-01-10T05:01:59.068Z,1011.45
2019-01-10T05:03:41.229Z,1011.40
2019-01-10T05:04:02.974Z,1011.45
2019-01-10T05:05:01.795Z,1011.47
2019-01-10T05:05:59.567Z,1011.50
2019-01-10T05:06:59.603Z,1011.41
2019-01-10T05:08:59.636Z,1011.41
2019-01-10T05:09:59.658Z,1011.41
2019-01-10T05:10:59.687Z,1011.42
2019-01-10T05:11:59.717Z,1011.50
2019-01-10T05:12:59.797Z,1011.51
2019-01-10T05:13:59.848Z,1011.48
2019-01-10T05:14:59.867Z,1011.56
2019-01-10T05:15:59.897Z,1011.50
2019-01-10T05:16:59.931Z,1011.47
2019-01-10T05:17:59.815Z,1011.51
2019-01-10T05:19:00.301Z,1011.52
2019-01-10T05:20:00.392Z,1011.45
2019-01-10T05:21:00.746Z,1011.50
2019-01-10T05:22:00.640Z,1011.52
2019-01-10T05:23:01.235Z,1011.56
2019-01-10T05:24:01.276Z,1011.46
2019-01-10T05:26:01.385Z,1011.52
2019-01-10T05:27:01.170Z,1011.53
2019-01-10T05:28:01.513Z,1011.52
2019-01-10T05:29:02.063Z,1011.57
2019-01-10T05:31:02.104Z,1011.66
2019-01-10T05:32:02.645Z,1011.65
2019-01-10T05:33:02.624Z,1011.65
2019-01-10T05:34:02.430Z,1011.70
2019-01-10T05:35:02.863Z,1011.67
2019-01-10T05:36:03.413Z,1011.68
2019-01-10T05:37:03.456Z,1011.71
2019-01-10T05:38:05.286Z,1011.74
2019-01-10T05:39:05.368Z,1011.77
2019-01-10T05:40:06.664Z,1011.74
2019-01-10T05:41:06.991Z,1011.78
2019-01-10T05:42:07.199Z,1011.78
2019-01-10T05:43:04.806Z,1011.72
2019-01-10T05:44:04.747Z,1011.69
2019-01-10T05:45:04.961Z,1011.69
2019-01-10T05:46:05.302Z,1011.73
2019-01-10T05:47:05.692Z,1011.80
2019-01-10T05:48:05.907Z,1011.73
2019-01-10T05:49:06.168Z,1011.74
2019-01-10T05:50:06.584Z,1011.78
2019-01-10T05:51:06.583Z,1011.69
2019-01-10T05:52:07.036Z,1011.75
2019-01-10T05:53:07.252Z,1011.69
2019-01-10T05:54:07.475Z,1011.71
2019-01-10T05:55:07.747Z,1011.74
2019-01-10T05:56:15.276Z,1011.80
2019-01-10T05:57:08.357Z,1011.76
2019-01-10T05:58:08.603Z,1011.80
2019-01-10T05:59:08.834Z,1011.82
2019-01-10T06:00:09.048Z,1011.91
2019-01-10T06:01:09.642Z,1011.77
2019-01-10T06:02:09.869Z,1011.92
2019-01-10T06:03:10.274Z,1011.85
2019-01-10T06:04:10.852Z,1011.75
2019-01-10T06:05:11.015Z,1011.85
2019-01-10T06:06:11.075Z,1011.87
2019-01-10T06:07:11.176Z,1011.81
2019-01-10T06:08:11.241Z,1011.89
2019-01-10T06:09:11.319Z,1011.89
2019-01-10T06:10:11.431Z,1011.91
2019-01-10T06:11:11.796Z,1011.95
2019-01-10T06:12:11.868Z,1011.96
2019-01-10T06:13:11.955Z,1011.90
2019-01-10T06:14:12.042Z,1011.88
2019-01-10T06:15:12.139Z,1011.99
2019-01-10T06:17:12.292Z,1011.99
2019-01-10T06:18:12.368Z,1012.05
2019-01-10T06:19:12.472Z,1012.05
2019-01-10T06:20:12.547Z,1011.97
2019-01-10T06:21:12.739Z,1012.11
2019-01-10T06:22:12.849Z,1012.05
2019-01-10T06:23:12.916Z,1012.13
2019-01-10T06:24:13.020Z,1011.99
2019-01-10T06:25:13.146Z,1012.12
2019-01-10T06:26:13.185Z,1012.05
2019-01-10T06:27:13.248Z,1012.11
2019-01-10T06:28:13.285Z,1012.01
2019-01-10T06:29:13.379Z,1012.05
2019-01-10T06:30:13.397Z,1012.09
2019-01-10T06:31:13.481Z,1012.12
2019-01-10T06:32:13.550Z,1012.15
2019-01-10T06:33:13.577Z,1012.18
2019-01-10T06:34:13.606Z,1012.19
2019-01-10T06:35:13.642Z,1012.20
2019-01-10T06:36:13.705Z,1012.17
2019-01-10T06:37:13.729Z,1012.30
2019-01-10T06:38:13.780Z,1012.17
2019-01-10T06:39:13.947Z,1012.25
2019-01-10T06:40:14.031Z,1012.28
2019-01-10T06:41:14.207Z,1012.21
2019-01-10T06:42:14.259Z,1012.19
2019-01-10T06:43:14.298Z,1012.23
2019-01-10T06:44:14.358Z,1012.31
2019-01-10T06:45:14.478Z,1012.24
2019-01-10T06:46:14.597Z,1012.22
2019-01-10T06:47:15.132Z,1012.38
2019-01-10T06:48:15.145Z,1012.32
2019-01-10T06:49:15.211Z,1012.36
2019-01-10T06:50:15.296Z,1012.45
2019-01-10T06:51:15.422Z,1012.48
2019-01-10T06:52:15.477Z,1012.37
2019-01-10T06:53:15.520Z,1012.39
2019-01-10T06:54:15.903Z,1012.40
2019-01-10T06:55:15.807Z,1012.45
2019-01-10T06:56:15.822Z,1012.47
2019-01-10T06:57:15.832Z,1012.49
2019-01-10T06:58:15.779Z,1012.46
2019-01-10T06:59:16.324Z,1012.48
2019-01-10T07:00:16.215Z,1012.52
2019-01-10T07:01:16.469Z,1012.53
2019-01-10T07:02:16.722Z,1012.43
2019-01-10T07:03:17.015Z,1012.35
2019-01-10T07:04:17.227Z,1012.49
2019-01-10T07:05:17.442Z,1012.56
2019-01-10T07:06:17.762Z,1012.55
2019-01-10T07:07:18.129Z,1012.54
2019-01-10T07:08:18.547Z,1012.50
2019-01-10T07:09:18.761Z,1012.60
2019-01-10T07:10:19.062Z,1012.64
2019-01-10T07:11:19.142Z,1012.52
2019-01-10T07:12:19.377Z,1012.53
2019-01-10T07:13:19.827Z,1012.59
2019-01-10T07:14:20.065Z,1012.57
2019-01-10T07:15:20.310Z,1012.66
2019-01-10T07:16:20.689Z,1012.59
2019-01-10T07:17:20.976Z,1012.65
2019-01-10T07:18:21.340Z,1012.56
2019-01-10T07:19:21.588Z,1012.61
2019-01-10T07:20:21.714Z,1012.59
2019-01-10T07:21:21.950Z,1012.71
2019-01-10T07:22:22.168Z,1012.62
2019-01-10T07:23:22.422Z,1012.63
2019-01-10T07:24:22.965Z,1012.70
2019-01-10T07:25:23.128Z,1012.73
2019-01-10T07:26:23.405Z,1012.77
2019-01-10T07:27:23.629Z,1012.76
2019-01-10T07:28:23.886Z,1012.77
2019-01-10T07:29:23.886Z,1012.79
2019-01-10T07:30:24.384Z,1012.80
2019-01-10T07:31:24.659Z,1012.80
2019-01-10T07:32:24.726Z,1012.83
2019-01-10T07:33:25.095Z,1012.85
2019-01-10T07:34:25.649Z,1012.90
2019-01-10T07:35:25.826Z,1012.89
2019-01-10T07:36:25.780Z,1012.84
2019-01-10T07:37:25.848Z,1012.91
2019-01-10T07:38:25.896Z,1012.93
2019-01-10T07:39:25.953Z,1012.80
2019-01-10T07:40:26.008Z,1012.85
2019-01-10T07:41:26.107Z,1012.96
2019-01-10T07:42:26.211Z,1012.97
2019-01-10T07:43:26.663Z,1012.87
2019-01-10T07:44:26.715Z,1012.99
2019-01-10T07:45:26.794Z,1012.75
2019-01-10T07:46:26.873Z,1012.89
2019-01-10T07:47:26.972Z,1013.00
2019-01-10T07:48:27.287Z,1012.93
2019-01-10T07:49:27.389Z,1012.95
2019-01-10T07:50:27.498Z,1012.96
2019-01-10T07:51:27.663Z,1012.96
2019-01-10T07:52:29.706Z,1013.00
2019-01-10T07:53:28.027Z,1013.01
2019-01-10T07:54:28.036Z,1013.02
2019-01-10T07:55:28.089Z,1013.03
2019-01-10T07:56:28.130Z,1013.02
2019-01-10T07:57:28.215Z,1013.04
2019-01-10T07:58:28.229Z,1013.02
2019-01-10T07:59:28.251Z,1013.03
2019-01-10T08:00:28.366Z,1013.03
2019-01-10T08:01:28.367Z,1013.04
2019-01-10T08:02:28.411Z,1013.08
2019-01-10T08:03:28.476Z,1013.08
2019-01-10T08:04:28.527Z,1013.10
2019-01-10T08:05:28.553Z,1013.09
2019-01-10T08:06:28.613Z,1013.09
2019-01-10T08:07:28.737Z,1013.11
2019-01-10T08:08:28.820Z,1013.13
2019-01-10T08:09:28.886Z,1013.12
2019-01-10T08:10:29.031Z,1013.13
2019-01-10T08:11:29.064Z,1013.15
2019-01-10T08:12:29.123Z,1013.18
2019-01-10T08:13:29.156Z,1013.18
2019-01-10T08:14:29.176Z,1013.20
2019-01-10T08:15:29.254Z,1013.21
2019-01-10T08:16:29.279Z,1013.23
2019-01-10T08:17:29.355Z,1013.24
2019-01-10T08:18:29.274Z,1013.29
2019-01-10T08:19:29.812Z,1013.30
2019-01-10T08:20:29.800Z,1013.31
2019-01-10T08:21:29.812Z,1013.33
2019-01-10T08:22:29.875Z,1013.33
2019-01-10T08:23:29.894Z,1013.35
2019-01-10T08:24:29.908Z,1013.36
2019-01-10T08:25:29.925Z,1013.37
2019-01-10T08:26:29.940Z,1013.38
2019-01-10T08:27:29.971Z,1013.37
2019-01-10T08:29:29.992Z,1013.38
2019-01-10T08:30:30.008Z,1013.39
2019-01-10T08:31:30.017Z,1013.40
2019-01-10T08:32:30.550Z,1013.41
2019-01-10T08:33:30.587Z,1013.43
2019-01-10T08:34:30.648Z,1013.46
2019-01-10T08:35:30.714Z,1013.47
2019-01-10T08:36:32.690Z,1013.49
2019-01-10T08:37:30.794Z,1013.50
2019-01-10T08:38:31.339Z,1013.52
2019-01-10T08:39:31.399Z,1013.53
2019-01-10T08:40:31.559Z,1013.54
2019-01-10T08:41:31.562Z,1013.54
2019-01-10T08:42:31.805Z,1013.54
2019-01-10T08:43:32.034Z,1013.55
2019-01-10T08:44:37.599Z,1013.57
2019-01-10T08:45:32.773Z,1013.55
2019-01-10T08:46:32.998Z,1013.55
2019-01-10T08:47:33.298Z,1013.58
2019-01-10T08:48:33.667Z,1013.58
2019-01-10T08:49:36.030Z,1013.59
2019-01-10T08:50:34.231Z,1013.60
2019-01-10T08:51:34.443Z,1013.60
2019-01-10T08:52:34.855Z,1013.62
2019-01-10T08:53:35.089Z,1013.61
2019-01-10T08:54:35.293Z,1013.60
2019-01-10T08:55:35.693Z,1013.59
2019-01-10T08:56:35.919Z,1013.62
2019-01-10T08:57:36.172Z,1013.61
2019-01-10T08:58:36.478Z,1013.60
2019-01-10T08:59:36.703Z,1013.57
2019-01-10T09:00:36.943Z,1013.58
2019-01-10T09:01:37.175Z,1013.58
2019-01-10T09:02:37.787Z,1013.60
2019-01-10T09:03:37.688Z,1013.64
2019-01-10T09:04:37.898Z,1013.64
2019-01-10T09:05:38.182Z,1013.63
2019-01-10T09:06:38.401Z,1013.64
2019-01-10T09:07:38.652Z,1013.64
2019-01-10T09:08:38.860Z,1013.62
2019-01-10T09:09:39.169Z,1013.61
2019-01-10T09:10:40.576Z,1013.61
2019-01-10T09:11:39.620Z,1013.59
2019-01-10T09:12:39.980Z,1013.61
2019-01-10T09:13:40.375Z,1013.62
2019-01-10T09:14:40.941Z,1013.62
2019-01-10T09:15:41.015Z,1013.63
2019-01-10T09:16:41.060Z,1013.64
2019-01-10T09:17:41.189Z,1013.64
2019-01-10T09:18:41.287Z,1013.66
2019-01-10T09:19:41.348Z,1013.66
2019-01-10T09:20:41.514Z,1013.66
2019-01-10T09:21:41.587Z,1013.66
2019-01-10T09:22:41.751Z,1013.66
2019-01-10T09:23:41.827Z,1013.66
2019-01-10T09:24:41.893Z,1013.64
2019-01-10T09:25:41.983Z,1013.66
2019-01-10T09:26:42.049Z,1013.65
2019-01-10T09:27:42.117Z,1013.65
2019-01-10T09:28:42.244Z,1013.67
2019-01-10T09:29:42.336Z,1013.68
2019-01-10T09:30:42.490Z,1013.68
2019-01-10T09:31:42.570Z,1013.67
2019-01-10T09:32:42.642Z,1013.66
2019-01-10T09:33:42.749Z,1013.66
2019-01-10T09:34:42.889Z,1013.68
2019-01-10T09:35:42.965Z,1013.72
2019-01-10T09:36:42.994Z,1013.72
2019-01-10T09:37:43.053Z,1013.71
2019-01-10T09:38:43.106Z,1013.71
2019-01-10T09:39:43.178Z,1013.72
2019-01-10T09:40:43.216Z,1013.72
2019-01-10T09:41:43.276Z,1013.73
2019-01-10T09:42:43.317Z,1013.74
2019-01-10T09:43:43.395Z,1013.73
2019-01-10T09:44:43.423Z,1013.73
2019-01-10T09:45:43.688Z,1013.72
2019-01-10T09:46:43.444Z,1013.71
2019-01-10T09:47:43.527Z,1013.72
2019-01-10T09:48:43.563Z,1013.73
2019-01-10T09:49:43.579Z,1013.71
2019-01-10T09:50:43.602Z,1013.73
2019-01-10T09:51:43.679Z,1013.74
2019-01-10T09:52:43.861Z,1013.75
2019-01-10T09:53:44.279Z,1013.76
2019-01-10T09:54:44.377Z,1013.76
2019-01-10T09:55:44.395Z,1013.79
2019-01-10T09:56:44.496Z,1013.79
2019-01-10T09:57:44.528Z,1013.79
2019-01-10T09:58:44.572Z,1013.78
2019-01-10T09:59:44.622Z,1013.77
2019-01-10T10:00:44.629Z,1013.80
2019-01-10T10:01:44.671Z,1013.81
2019-01-10T10:02:44.694Z,1013.82
2019-01-10T10:03:44.804Z,1013.82
2019-01-10T10:04:44.763Z,1013.83
2019-01-10T10:05:44.798Z,1013.84
2019-01-10T10:06:44.826Z,1013.87
2019-01-10T10:07:44.841Z,1013.88
2019-01-10T10:08:44.846Z,1013.89
2019-01-10T10:09:44.907Z,1013.89
2019-01-10T10:10:44.915Z,1013.88
2019-01-10T10:11:44.941Z,1013.89
2019-01-10T10:12:44.946Z,1013.89
2019-01-10T10:13:44.955Z,1013.85
2019-01-10T10:14:44.974Z,1013.84
2019-01-10T10:15:52.349Z,1013.84
2019-01-10T10:16:44.993Z,1013.84
2019-01-10T10:17:45.056Z,1013.85
2019-01-10T10:18:45.059Z,1013.86
2019-01-10T10:19:45.067Z,1013.87
2019-01-10T10:20:45.100Z,1013.88
2019-01-10T10:21:45.217Z,1013.88
2019-01-10T10:22:45.142Z,1013.88
2019-01-10T10:23:45.172Z,1013.86
2019-01-10T10:24:45.279Z,1013.87
2019-01-10T10:25:45.322Z,1013.85
2019-01-10T10:26:45.340Z,1013.87
2019-01-10T10:27:45.358Z,1013.90
2019-01-10T10:28:45.384Z,1013.91
2019-01-10T10:29:45.407Z,1013.91
2019-01-10T10:30:45.431Z,1013.92
2019-01-10T10:31:45.458Z,1013.92
2019-01-10T10:32:45.470Z,1013.93
2019-01-10T10:33:45.547Z,1013.95
2019-01-10T10:34:45.560Z,1013.96
2019-01-10T10:35:45.696Z,1013.96
2019-01-10T10:36:45.682Z,1013.95
2019-01-10T10:37:45.707Z,1013.93
2019-01-10T10:38:45.720Z,1013.92
2019-01-10T10:39:45.739Z,1013.93
2019-01-10T10:40:45.824Z,1013.91
2019-01-10T10:41:45.893Z,1013.90
2019-01-10T10:42:45.907Z,1013.90
2019-01-10T10:43:46.183Z,1013.92
2019-01-10T10:44:46.578Z,1013.92
2019-01-10T10:45:46.779Z,1013.92
2019-01-10T10:46:47.122Z,1013.94
2019-01-10T10:47:47.441Z,1013.93
2019-01-10T10:48:47.736Z,1013.95
2019-01-10T10:49:47.966Z,1013.96
2019-01-10T10:50:48.217Z,1013.95
2019-01-10T10:51:48.563Z,1013.97
2019-01-10T10:52:48.798Z,1013.96
2019-01-10T10:53:49.027Z,1013.96
2019-01-10T10:54:49.314Z,1013.95
2019-01-10T10:55:49.731Z,1013.93
2019-01-10T10:56:50.087Z,1013.93
2019-01-10T10:57:50.352Z,1013.94
2019-01-10T10:58:50.783Z,1013.93
2019-01-10T10:59:51.050Z,1013.93
2019-01-10T11:00:51.344Z,1013.95
2019-01-10T11:01:51.601Z,1013.94
2019-01-10T11:02:51.855Z,1013.94
2019-01-10T11:03:52.091Z,1013.92
2019-01-10T11:04:52.451Z,1013.92
2019-01-10T11:05:52.952Z,1013.92
2019-01-10T11:06:53.148Z,1013.93
2019-01-10T11:07:53.568Z,1013.93
2019-01-10T11:08:53.806Z,1013.93
2019-01-10T11:09:54.183Z,1013.95
2019-01-10T11:10:54.569Z,1013.93
2019-01-10T11:11:54.785Z,1013.95
2019-01-10T11:12:55.085Z,1013.98
2019-01-10T11:13:55.634Z,1013.99
2019-01-10T11:14:55.805Z,1013.97
2019-01-10T11:15:55.875Z,1013.97
2019-01-10T11:16:55.943Z,1013.98
2019-01-10T11:17:56.030Z,1013.99
2019-01-10T11:18:56.118Z,1013.99
2019-01-10T11:19:56.200Z,1013.99
2019-01-10T11:20:56.331Z,1014.00
2019-01-10T11:21:56.410Z,1013.97
2019-01-10T11:22:56.502Z,1013.96
2019-01-10T11:23:56.615Z,1013.95
2019-01-10T11:24:56.704Z,1013.97
2019-01-10T11:25:56.790Z,1013.97
2019-01-10T11:26:56.877Z,1013.97
2019-01-10T11:27:56.962Z,1013.98
2019-01-10T11:28:57.035Z,1013.98
2019-01-10T11:29:57.093Z,1013.99
2019-01-10T11:30:57.201Z,1013.99
2019-01-10T11:31:57.375Z,1013.98
2019-01-10T11:32:57.432Z,1013.98
2019-01-10T11:33:57.539Z,1013.99
2019-01-10T11:34:57.635Z,1014.00
2019-01-10T11:35:57.740Z,1014.01
2019-01-10T11:36:57.860Z,1014.02
2019-01-10T11:37:57.878Z,1013.99
2019-01-10T11:38:57.891Z,1013.98
2019-01-10T11:39:57.967Z,1013.97
2019-01-10T11:40:57.975Z,1013.98
2019-01-10T11:41:58.018Z,1013.95
2019-01-10T11:42:58.099Z,1013.95
2019-01-10T11:43:58.143Z,1013.93
2019-01-10T11:44:58.204Z,1013.92
2019-01-10T11:45:58.212Z,1013.94
2019-01-10T11:46:58.259Z,1013.93
2019-01-10T11:47:58.301Z,1013.94
2019-01-10T11:48:58.316Z,1013.96
2019-01-10T11:49:58.362Z,1013.98
2019-01-10T11:50:58.369Z,1013.98
2019-01-10T11:51:58.418Z,1013.98
2019-01-10T11:52:58.467Z,1013.98
2019-01-10T11:53:58.519Z,1013.98
2019-01-10T11:54:58.543Z,1013.96
2019-01-10T11:55:58.543Z,1013.95
2019-01-10T11:56:58.619Z,1013.95
2019-01-10T11:57:58.657Z,1013.97
2019-01-10T11:58:58.699Z,1013.95
2019-01-10T11:59:58.720Z,1013.96
2019-01-10T12:00:58.482Z,1013.94
2019-01-10T12:01:59.051Z,1013.96
2019-01-10T12:02:59.117Z,1013.95
2019-01-10T12:03:59.529Z,1013.97
2019-01-10T12:04:59.544Z,1013.97
2019-01-10T12:05:59.595Z,1013.98
2019-01-10T12:06:59.613Z,1013.99
2019-01-10T12:07:59.644Z,1014.00
2019-01-10T12:08:59.666Z,1013.98
2019-01-10T12:09:59.688Z,1013.97
2019-01-10T12:10:59.748Z,1013.97
2019-01-10T12:11:59.757Z,1013.98
2019-01-10T12:12:59.785Z,1013.96
2019-01-10T12:13:59.810Z,1013.98
2019-01-10T12:14:59.811Z,1013.98
2019-01-10T12:15:59.819Z,1013.96
2019-01-10T12:16:59.850Z,1013.96
2019-01-10T12:17:59.892Z,1013.95
2019-01-10T12:18:59.951Z,1013.93
2019-01-10T12:19:59.980Z,1013.91
2019-01-10T12:21:00.060Z,1013.93
2019-01-10T12:22:00.107Z,1013.93